Terminal Aerodrome Forecast
Issued by NWS Wilmington, OH

Current Version | Previous Version | Graphics & Text | Print | Product List | Glossary On
Versions: 1 2 3 4 5 6 7 8 9 10 11 12 13 14 15 16 17 18 19
000
FTUS41 KILN 312211 AAA
TAFCMH
TAF AMD
KCMH 312211Z 3122/0118 24005KT P6SM VCTS BKN040CB
      TEMPO 3122/3124 35012G20KT 4SM -TSRA BKN035CB
     FM010100 23003KT P6SM SCT250
     FM010800 00000KT 4SM BR SCT250
     FM011400 24003KT P6SM SCT025=

USA.gov is the U.S. government's official web portal to all federal, state and local government web resources and services.